首页
METAR-TAF:

METAR-TAF

机场 :

阿姆斯特丹史基浦機場

阿姆斯特丹, 荷兰

纬度: 52-18N, 经度: 004-46E, 海拔: -4米

当前天气观测

该预报发布于41分钟前的03:55 UTC
风速7节,风向西
温度 5°C
湿度 93%
气压 1032 hPa
能见度10公里或以上
散云层高于4700英尺

METAR: EHAM 260355Z 27007KT 9999 SCT047 05/04 Q1032 NOSIG

时间: 05:36 (04:36 UTC)

预报

该预报发布于5小时和18分钟前的23:18 UTC
预报有效从26日的 00点(UTC)到 27日的 06点(UTC)
风速5节,风向西转西北
能见度10公里或以上
多云层高于4000英尺
几率 30% :
短暂存在
从 26日的 04点(UTC)到 26日的 07点(UTC)
能見度: 7000
浅雾
成为
从 26日的 10点(UTC)到 26日的 13点(UTC)
风速11节,风向西北
成为
从 26日的 16点(UTC)到 26日的 19点(UTC)
风速5节,风向西转西北
成为
从 26日的 20点(UTC)到 26日的 23点(UTC)
能見度: 7000
浅雾
成为
从 26日的 23点(UTC)到 27日的 02点(UTC)
风速3节,风向多变
能見度: 2000
碎片雾, 轻雾
几率 30%
从 27日的 02点(UTC)到 27日的 06点(UTC)
能見度: 0800
多云层高于100英尺

TAF: EHAM 252318Z 2600/2706 29005KT 9999 BKN040 PROB30 TEMPO 2604/2607 7000 MIFG BECMG 2610/2613 32011KT BECMG 2616/2619 29005KT BECMG 2620/2623 7000 MIFG BECMG 2623/2702 VRB03KT 2000 BCFG BR PROB30 2702/2706 0800 FG BKN001

超过4000个机场的气象观测和天气预报(METAR&TAF报告)。

可查询的气象台以黄色和红色小点在地图上表示。

将鼠标移到小点上方,可查看气象台名称。

然后点击查看天气观测和预报。

如需切换地图:点击带黑十字的绿色按钮放大地图;点击带横线的绿色按钮缩小地图;或者点击绿色箭头查看邻近地区的地图。


METAR-TAF: